createdAt,value
2022-09-10T00:00:12.357Z,98747.91
2022-09-10T00:01:15.302Z,98708.31
2022-09-10T00:02:17.265Z,98720.63
2022-09-10T00:03:18.961Z,98743.59
2022-09-10T00:04:20.647Z,98729.75
2022-09-10T00:05:22.613Z,98737.47
2022-09-10T00:06:28.063Z,98759.19
2022-09-10T00:07:32.750Z,98720.13
2022-09-10T00:08:34.565Z,98726.56
2022-09-10T00:09:36.505Z,98699.28
2022-09-10T00:10:43.020Z,98616.75
2022-09-10T00:11:45.905Z,98698.50
2022-09-10T00:12:51.391Z,98715.09
2022-09-10T00:13:53.176Z,98705.75
2022-09-10T00:14:56.469Z,98670.50
2022-09-10T00:15:59.787Z,98707.84
2022-09-10T00:17:01.881Z,98687.59
2022-09-10T00:18:03.643Z,98714.81
2022-09-10T00:19:06.708Z,98716.97
2022-09-10T00:20:09.309Z,98683.50
2022-09-10T00:21:14.840Z,98703.56
2022-09-10T00:22:17.073Z,98719.63
2022-09-10T00:23:22.475Z,98711.59
2022-09-10T00:24:24.321Z,98732.44
2022-09-10T00:25:30.695Z,98749.78
2022-09-10T00:26:38.316Z,98657.03
2022-09-10T00:27:40.895Z,98709.38
2022-09-10T00:28:43.411Z,98740.34
2022-09-10T00:29:45.129Z,98624.34
2022-09-10T00:30:49.702Z,98697.34
2022-09-10T00:31:51.958Z,98653.75
2022-09-10T00:32:55.143Z,98733.66
2022-09-10T00:33:58.953Z,98719.03
2022-09-10T00:35:01.852Z,98722.50
2022-09-10T00:36:06.133Z,98719.03
2022-09-10T00:37:07.828Z,98736.63
2022-09-10T00:38:11.353Z,98749.69
2022-09-10T00:39:15.906Z,98752.38
2022-09-10T00:40:17.785Z,98709.38
2022-09-10T00:41:21.795Z,98728.13
2022-09-10T00:42:23.506Z,98725.38
2022-09-10T00:43:25.646Z,98738.81
2022-09-10T00:44:41.931Z,98758.84
2022-09-10T00:45:46.633Z,98752.38
2022-09-10T00:46:51.803Z,98733.22
2022-09-10T00:47:57.278Z,98647.97
2022-09-10T00:49:02.678Z,98729.69
2022-09-10T00:50:22.243Z,98750.06
2022-09-10T00:51:26.671Z,98738.09
2022-09-10T00:52:29.524Z,98747.03
2022-09-10T00:53:32.062Z,98775.78
2022-09-10T00:54:36.236Z,98755.41
2022-09-10T00:55:42.938Z,98736.13
2022-09-10T00:56:45.526Z,98711.03
2022-09-10T00:57:50.764Z,98757.31
2022-09-10T00:58:52.978Z,98741.34
2022-09-10T01:00:02.052Z,98762.53
2022-09-10T01:01:04.321Z,98764.25
2022-09-10T01:02:06.252Z,98659.66
2022-09-10T01:03:14.141Z,98751.41
2022-09-10T01:04:16.466Z,98734.06
2022-09-10T01:05:19.708Z,98667.72
2022-09-10T01:06:21.469Z,98746.63
2022-09-10T01:07:25.538Z,98720.09
2022-09-10T01:08:30.076Z,98768.56
2022-09-10T01:09:32.022Z,98766.38
2022-09-10T01:10:43.571Z,98701.44
2022-09-10T01:12:09.051Z,98778.31
2022-09-10T01:13:32.421Z,98772.66
2022-09-10T01:14:55.516Z,98766.75
2022-09-10T01:16:03.263Z,98767.78
2022-09-10T01:17:34.532Z,98749.38
2022-09-10T01:19:19.540Z,98767.03
2022-09-10T01:20:48.559Z,98764.66
2022-09-10T01:22:22.994Z,98771.59
2022-09-10T01:24:15.024Z,98771.88
2022-09-10T01:25:22.853Z,98777.22
2022-09-10T01:26:51.939Z,98726.06
2022-09-10T01:27:58.297Z,98730.88
2022-09-10T01:29:28.506Z,98759.50
2022-09-10T01:30:43.080Z,98764.59
2022-09-10T01:32:15.750Z,98738.38
2022-09-10T01:33:37.530Z,98743.19
2022-09-10T01:34:51.340Z,98752.28
2022-09-10T01:35:57.749Z,98734.88
2022-09-10T01:37:08.060Z,98700.09
2022-09-10T01:38:23.842Z,98766.50
2022-09-10T01:39:27.529Z,98745.84
2022-09-10T01:40:30.166Z,98709.47
2022-09-10T01:41:32.286Z,98732.25
2022-09-10T01:42:38.207Z,98740.53
2022-09-10T01:43:41.309Z,98706.28
2022-09-10T01:44:43.950Z,98739.69
2022-09-10T01:46:19.297Z,98755.50
2022-09-10T01:47:39.114Z,98709.97
2022-09-10T01:48:56.282Z,98749.91
2022-09-10T01:50:27.182Z,98756.88
2022-09-10T01:51:45.056Z,98757.41
2022-09-10T01:53:01.982Z,98732.00
2022-09-10T01:54:14.497Z,98771.91
2022-09-10T01:55:30.154Z,98762.78
2022-09-10T01:57:01.654Z,98759.28
2022-09-10T01:58:12.131Z,98760.38
2022-09-10T01:59:22.839Z,98717.56
2022-09-10T02:00:25.809Z,98759.81
2022-09-10T02:01:51.195Z,98750.72
2022-09-10T02:03:06.002Z,98708.44
2022-09-10T02:04:10.625Z,98744.56
2022-09-10T02:05:14.312Z,98714.56
2022-09-10T02:06:21.348Z,98729.81
2022-09-10T02:07:27.028Z,98726.59
2022-09-10T02:08:33.893Z,98724.19
2022-09-10T02:09:36.488Z,98715.88
2022-09-10T02:10:56.207Z,98750.41
2022-09-10T02:11:57.938Z,98676.03
2022-09-10T02:12:59.683Z,98745.31
2022-09-10T02:14:01.459Z,98721.84
2022-09-10T02:15:04.635Z,98706.84
2022-09-10T02:16:11.386Z,98748.59
2022-09-10T02:17:13.415Z,98725.09
2022-09-10T02:18:15.915Z,98755.59
2022-09-10T02:19:18.054Z,98755.59
2022-09-10T02:20:22.242Z,98747.28
2022-09-10T02:21:24.130Z,98724.00
2022-09-10T02:22:25.949Z,98744.59
2022-09-10T02:23:37.411Z,98732.56
2022-09-10T02:24:39.257Z,98722.38
2022-09-10T02:25:40.998Z,98724.25
2022-09-10T02:26:44.407Z,98742.19
2022-09-10T02:27:47.822Z,98653.34
2022-09-10T02:28:52.272Z,98726.66
2022-09-10T02:29:55.572Z,98664.59
2022-09-10T02:30:57.371Z,98771.06
2022-09-10T02:31:59.942Z,98738.41
2022-09-10T02:33:01.622Z,98743.25
2022-09-10T02:34:03.700Z,98743.25
2022-09-10T02:35:05.910Z,98765.47
2022-09-10T02:36:07.672Z,98789.84
2022-09-10T02:37:09.513Z,98784.47
2022-09-10T02:38:11.377Z,98781.56
2022-09-10T02:39:13.255Z,98771.09
2022-09-10T02:40:15.109Z,98776.47
2022-09-10T02:41:18.100Z,98697.78
2022-09-10T02:42:20.055Z,98769.22
2022-09-10T02:43:21.787Z,98777.00
2022-09-10T02:44:23.551Z,98758.00
2022-09-10T02:45:25.642Z,98729.88
2022-09-10T02:46:27.599Z,98745.69
2022-09-10T02:47:30.229Z,98737.38
2022-09-10T02:48:32.142Z,98732.84
2022-09-10T02:49:34.854Z,98688.16
2022-09-10T02:50:36.833Z,98703.69
2022-09-10T02:51:39.011Z,98727.75
2022-09-10T02:52:40.729Z,98737.69
2022-09-10T02:53:42.938Z,98736.59
2022-09-10T02:54:44.659Z,98728.84
2022-09-10T02:55:46.836Z,98752.91
2022-09-10T02:56:51.207Z,98749.72
2022-09-10T02:57:52.904Z,98740.63
2022-09-10T02:58:54.668Z,98740.63
2022-09-10T02:59:57.245Z,98752.38
2022-09-10T03:01:10.021Z,98762.56
2022-09-10T03:02:12.002Z,98739.00
2022-09-10T03:03:14.976Z,98774.88
2022-09-10T03:04:17.407Z,98771.16
2022-09-10T03:05:19.247Z,98739.81
2022-09-10T03:06:22.175Z,98731.25
2022-09-10T03:07:23.942Z,98740.63
2022-09-10T03:08:26.604Z,98752.38
2022-09-10T03:09:29.036Z,98723.75
2022-09-10T03:10:31.969Z,98744.94
2022-09-10T03:11:34.958Z,98761.53
2022-09-10T03:12:36.823Z,98731.28
2022-09-10T03:13:38.545Z,98742.25
2022-09-10T03:14:40.288Z,98767.94
2022-09-10T03:15:44.809Z,98754.31
2022-09-10T03:16:48.083Z,98773.59
2022-09-10T03:17:49.881Z,98747.88
2022-09-10T03:18:52.483Z,98782.13
2022-09-10T03:19:54.397Z,98780.25
2022-09-10T03:20:56.173Z,98705.03
2022-09-10T03:21:58.027Z,98760.44
2022-09-10T03:22:59.808Z,98758.56
2022-09-10T03:24:04.684Z,98720.81
2022-09-10T03:25:08.159Z,98786.16
2022-09-10T03:26:10.351Z,98769.03
2022-09-10T03:27:14.264Z,98721.38
2022-09-10T03:28:16.414Z,98726.72
2022-09-10T03:29:18.173Z,98784.28
2022-09-10T03:30:21.338Z,98766.34
2022-09-10T03:31:23.159Z,98755.09
2022-09-10T03:32:25.049Z,98737.97
2022-09-10T03:33:27.784Z,98743.31
2022-09-10T03:34:29.495Z,98765.81
2022-09-10T03:35:31.220Z,98680.09
2022-09-10T03:36:32.904Z,98658.69
2022-09-10T03:37:34.659Z,98745.19
2022-09-10T03:38:36.483Z,98739.28
2022-09-10T03:39:38.252Z,98747.88
2022-09-10T03:40:40.727Z,98708.75
2022-09-10T03:41:42.550Z,98738.22
2022-09-10T03:42:44.275Z,98773.59
2022-09-10T03:43:46.262Z,98742.75
2022-09-10T03:44:48.015Z,98745.97
2022-09-10T03:45:51.647Z,98782.19
2022-09-10T03:46:53.394Z,98777.06
2022-09-10T03:47:55.134Z,98753.75
2022-09-10T03:48:57.289Z,98786.97
2022-09-10T03:50:00.144Z,98745.97
2022-09-10T03:51:02.040Z,98786.44
2022-09-10T03:52:03.949Z,98764.75
2022-09-10T03:53:05.664Z,98756.97
2022-09-10T03:54:07.378Z,98729.38
2022-09-10T03:55:10.629Z,98742.75
2022-09-10T03:56:12.370Z,98778.16
2022-09-10T03:57:14.175Z,98774.66
2022-09-10T03:58:16.968Z,98785.13
2022-09-10T03:59:18.810Z,98669.69
2022-09-10T04:00:20.632Z,98769.06
2022-09-10T04:01:22.357Z,98687.59
2022-09-10T04:02:24.182Z,98752.94
2022-09-10T04:03:27.160Z,98768.50
2022-09-10T04:04:29.656Z,98778.69
2022-09-10T04:05:33.080Z,98782.97
2022-09-10T04:06:35.707Z,98739.81
2022-09-10T04:07:38.008Z,98742.75
2022-09-10T04:08:40.734Z,98677.97
2022-09-10T04:09:42.596Z,98744.63
2022-09-10T04:10:44.534Z,98753.72
2022-09-10T04:11:46.956Z,98765.25
2022-09-10T04:12:49.077Z,98784.56
2022-09-10T04:13:51.525Z,98740.06
2022-09-10T04:14:53.640Z,98765.25
2022-09-10T04:15:56.233Z,98728.56
2022-09-10T04:16:59.147Z,98764.97
2022-09-10T04:18:01.022Z,98763.91
2022-09-10T04:19:02.840Z,98753.44
2022-09-10T04:20:04.972Z,98781.31
2022-09-10T04:21:06.858Z,98725.09
2022-09-10T04:22:08.562Z,98760.44
2022-09-10T04:23:10.354Z,98750.25
2022-09-10T04:24:12.866Z,98766.91
2022-09-10T04:25:16.055Z,98746.28
2022-09-10T04:26:19.562Z,98770.09
2022-09-10T04:27:22.435Z,98720.03
2022-09-10T04:28:24.299Z,98721.09
2022-09-10T04:29:26.073Z,98755.63
2022-09-10T04:30:28.960Z,98772.47
2022-09-10T04:31:30.728Z,98775.38
2022-09-10T04:32:32.523Z,98778.38
2022-09-10T04:33:34.332Z,98749.41
2022-09-10T04:34:36.137Z,98761.44
2022-09-10T04:35:39.644Z,98745.34
2022-09-10T04:36:41.411Z,98763.00
2022-09-10T04:37:43.351Z,98771.81
2022-09-10T04:38:45.082Z,98662.34
2022-09-10T04:39:47.017Z,98778.72
2022-09-10T04:40:48.760Z,98758.06
2022-09-10T04:41:50.461Z,98749.47
2022-09-10T04:42:52.247Z,98746.75
2022-09-10T04:43:53.939Z,98740.81
2022-09-10T04:44:55.629Z,98733.22
2022-09-10T04:45:57.441Z,98620.09
2022-09-10T04:46:59.224Z,98741.16
2022-09-10T04:48:06.197Z,98762.25
2022-09-10T04:49:08.757Z,98722.31
2022-09-10T04:50:10.758Z,98775.19
2022-09-10T04:51:16.503Z,98734.97
2022-09-10T04:52:20.365Z,98708.97
2022-09-10T04:53:22.127Z,98742.22
2022-09-10T04:54:23.835Z,98705.78
2022-09-10T04:55:26.299Z,98750.06
2022-09-10T04:56:28.190Z,98658.13
2022-09-10T04:57:30.071Z,98725.25
2022-09-10T04:58:36.560Z,98741.66
2022-09-10T04:59:40.487Z,98742.41
2022-09-10T05:00:42.263Z,98708.81
2022-09-10T05:01:44.104Z,98741.19
2022-09-10T05:02:46.798Z,98757.56
2022-09-10T05:03:48.490Z,98753.56
2022-09-10T05:04:50.919Z,98754.31
2022-09-10T05:05:52.723Z,98747.38
2022-09-10T05:06:54.468Z,98737.84
2022-09-10T05:07:56.298Z,98729.69
2022-09-10T05:08:58.639Z,98670.22
2022-09-10T05:10:00.325Z,98706.88
2022-09-10T05:11:02.968Z,98670.41
2022-09-10T05:12:05.026Z,98747.97
2022-09-10T05:13:07.183Z,98750.16
2022-09-10T05:14:09.053Z,98728.63
2022-09-10T05:15:10.929Z,98756.47
2022-09-10T05:16:12.711Z,98757.72
2022-09-10T05:17:15.571Z,98669.31
2022-09-10T05:18:17.280Z,98737.38
2022-09-10T05:19:19.044Z,98775.84
2022-09-10T05:20:20.759Z,98755.00
2022-09-10T05:21:22.820Z,98742.19
2022-09-10T05:22:27.359Z,98748.66
2022-09-10T05:23:33.439Z,98738.34
2022-09-10T05:24:35.125Z,98750.03
2022-09-10T05:25:37.858Z,98753.28
2022-09-10T05:26:40.169Z,98739.75
2022-09-10T05:27:42.085Z,98741.53
2022-09-10T05:28:43.934Z,98765.91
2022-09-10T05:29:45.634Z,98739.75
2022-09-10T05:30:51.560Z,98718.38
2022-09-10T05:31:53.742Z,98762.84
2022-09-10T05:32:55.812Z,98767.91
2022-09-10T05:33:59.491Z,98757.34
2022-09-10T05:35:02.314Z,98770.03
2022-09-10T05:36:05.340Z,98674.88
2022-09-10T05:37:08.943Z,98772.63
2022-09-10T05:38:14.762Z,98765.56
2022-09-10T05:39:16.881Z,98717.25
2022-09-10T05:40:21.761Z,98711.97
2022-09-10T05:41:24.750Z,98783.69
2022-09-10T05:42:27.083Z,98782.94
2022-09-10T05:43:29.057Z,98772.53
2022-09-10T05:44:30.819Z,98758.94
2022-09-10T05:45:32.728Z,98731.59
2022-09-10T05:46:34.847Z,98769.41
2022-09-10T05:47:37.684Z,98766.06
2022-09-10T05:48:41.934Z,98780.97
2022-09-10T05:49:44.920Z,98776.25
2022-09-10T05:50:46.661Z,98784.03
2022-09-10T05:51:48.410Z,98789.91
2022-09-10T05:52:50.047Z,98795.47
2022-09-10T05:53:51.690Z,98800.25
2022-09-10T05:54:56.553Z,98797.31
2022-09-10T05:55:58.219Z,98798.66
2022-09-10T05:57:00.334Z,98800.72
2022-09-10T05:58:03.043Z,98797.19
2022-09-10T05:59:05.695Z,98792.19
2022-09-10T06:00:09.433Z,98796.94
2022-09-10T06:01:11.349Z,98785.41
2022-09-10T06:02:23.946Z,98786.19
2022-09-10T06:03:26.183Z,98780.19
2022-09-10T06:04:27.857Z,98782.78
2022-09-10T06:05:29.529Z,98775.84
2022-09-10T06:06:31.366Z,98781.78
2022-09-10T06:07:33.185Z,98771.09
2022-09-10T06:08:35.807Z,98763.91
2022-09-10T06:09:37.575Z,98749.84
2022-09-10T06:10:39.430Z,98774.69
2022-09-10T06:11:41.993Z,98769.22
2022-09-10T06:12:47.202Z,98772.72
2022-09-10T06:13:49.260Z,98765.28
2022-09-10T06:14:50.911Z,98772.91
2022-09-10T06:15:53.143Z,98774.56
2022-09-10T06:16:55.319Z,98777.56
2022-09-10T06:17:57.640Z,98773.97
2022-09-10T06:18:59.770Z,98773.25
2022-09-10T06:20:01.492Z,98770.41
2022-09-10T06:21:15.420Z,98760.41
2022-09-10T06:22:17.093Z,98770.53
2022-09-10T06:23:18.829Z,98773.41
2022-09-10T06:24:21.192Z,98771.69
2022-09-10T06:25:23.070Z,98771.28
2022-09-10T06:26:24.726Z,98777.81
2022-09-10T06:27:26.644Z,98765.41
2022-09-10T06:28:28.649Z,98771.47
2022-09-10T06:29:30.357Z,98756.41
2022-09-10T06:30:32.525Z,98766.28
2022-09-10T06:31:34.996Z,98754.44
2022-09-10T06:32:36.725Z,98773.97
2022-09-10T06:33:38.383Z,98774.53
2022-09-10T06:34:40.056Z,98772.22
2022-09-10T06:35:41.758Z,98779.09
2022-09-10T06:36:43.806Z,98777.56
2022-09-10T06:37:45.506Z,98787.78
2022-09-10T06:38:48.212Z,98791.16
2022-09-10T06:39:49.916Z,98787.56
2022-09-10T06:40:56.246Z,98774.44
2022-09-10T06:41:57.915Z,98782.56
2022-09-10T06:43:02.263Z,98773.88
2022-09-10T06:44:03.954Z,98771.59
2022-09-10T06:45:06.269Z,98775.97
2022-09-10T06:46:56.939Z,98777.97
2022-09-10T06:48:51.546Z,98777.56
2022-09-10T06:49:04.326Z,98782.19
2022-09-10T06:50:06.470Z,98776.97
2022-09-10T06:51:10.236Z,98776.56
2022-09-10T06:52:11.893Z,98774.34
2022-09-10T06:53:13.728Z,98777.34
2022-09-10T06:54:15.422Z,98777.38
2022-09-10T06:55:17.259Z,98776.69
2022-09-10T06:56:18.926Z,98749.59
2022-09-10T06:57:20.837Z,98771.25
2022-09-10T06:58:24.664Z,98778.19
2022-09-10T06:59:26.306Z,98774.44
2022-09-10T07:00:28.105Z,98773.94
2022-09-10T07:01:29.986Z,98771.06
2022-09-10T07:02:31.705Z,98779.25
2022-09-10T07:03:33.638Z,98776.00
2022-09-10T07:04:35.456Z,98773.81
2022-09-10T07:05:37.128Z,98774.97
2022-09-10T07:06:39.036Z,98767.34
2022-09-10T07:07:41.013Z,98766.22
2022-09-10T07:08:43.229Z,98768.75
2022-09-10T07:09:45.501Z,98760.16
2022-09-10T07:10:47.219Z,98765.28
2022-09-10T07:11:48.868Z,98765.75
2022-09-10T07:12:50.646Z,98775.41
2022-09-10T07:13:53.962Z,98770.06
2022-09-10T07:14:55.630Z,98775.78
2022-09-10T07:15:57.749Z,98774.75
2022-09-10T07:16:59.465Z,98768.66
2022-09-10T07:18:01.292Z,98769.94
2022-09-10T07:19:02.961Z,98775.41
2022-09-10T07:20:05.157Z,98784.47
2022-09-10T07:21:08.261Z,98773.69
2022-09-10T07:22:09.965Z,98786.91
2022-09-10T07:23:16.343Z,98781.69
2022-09-10T07:24:20.139Z,98792.88
2022-09-10T07:25:23.537Z,98799.47
2022-09-10T07:26:26.058Z,98803.25
2022-09-10T07:27:27.701Z,98799.81
2022-09-10T07:28:29.449Z,98799.50
2022-09-10T07:29:31.444Z,98803.38
2022-09-10T07:30:34.029Z,98797.88
2022-09-10T07:31:38.355Z,98807.59
2022-09-10T07:32:40.621Z,98809.94
2022-09-10T07:33:43.307Z,98811.69
2022-09-10T07:34:46.751Z,98812.63
2022-09-10T07:35:48.398Z,98813.88
2022-09-10T07:36:50.805Z,98805.31
2022-09-10T07:37:52.475Z,98810.56
2022-09-10T07:38:57.712Z,98803.28
2022-09-10T07:39:59.963Z,98797.66
2022-09-10T07:41:02.949Z,98791.81
2022-09-10T07:42:04.862Z,98778.19
2022-09-10T07:43:07.339Z,98789.00
2022-09-10T07:44:09.077Z,98780.28
2022-09-10T07:45:16.307Z,98785.16
2022-09-10T07:46:22.030Z,98783.16
2022-09-10T07:47:25.402Z,98776.97
2022-09-10T07:48:28.553Z,98782.88
2022-09-10T07:49:30.358Z,98767.09
2022-09-10T07:50:32.176Z,98782.28
2022-09-10T07:51:34.418Z,98785.25
2022-09-10T07:52:36.945Z,98775.59
2022-09-10T07:53:42.171Z,98770.47
2022-09-10T07:54:51.852Z,98758.94
2022-09-10T07:56:09.489Z,98755.06
2022-09-10T07:57:11.164Z,98758.06
2022-09-10T07:58:12.871Z,98752.19
2022-09-10T07:59:15.478Z,98736.38
2022-09-10T08:00:18.642Z,98736.69
2022-09-10T08:01:20.423Z,98742.88
2022-09-10T08:02:22.511Z,98751.75
2022-09-10T08:03:24.221Z,98755.50
2022-09-10T08:04:26.283Z,98751.44
2022-09-10T08:05:28.932Z,98752.81
2022-09-10T08:06:32.332Z,98757.16
2022-09-10T08:07:34.246Z,98757.06
2022-09-10T08:08:38.541Z,98750.84
2022-09-10T08:09:40.412Z,98751.16
2022-09-10T08:10:42.349Z,98751.84
2022-09-10T08:11:43.986Z,98753.22
2022-09-10T08:12:45.880Z,98757.31
2022-09-10T08:13:50.121Z,98748.72
2022-09-10T08:14:52.448Z,98755.75
2022-09-10T08:15:54.166Z,98752.16
2022-09-10T08:16:55.976Z,98756.22
2022-09-10T08:17:59.931Z,98745.75
2022-09-10T08:19:02.025Z,98763.44
2022-09-10T08:20:08.893Z,98760.63
2022-09-10T08:21:11.346Z,98759.38
2022-09-10T08:22:14.316Z,98752.31
2022-09-10T08:23:15.966Z,98758.91
2022-09-10T08:24:17.851Z,98770.91
2022-09-10T08:25:22.488Z,98767.84
2022-09-10T08:26:25.944Z,98768.53
2022-09-10T08:27:27.662Z,98768.53
2022-09-10T08:28:29.511Z,98770.50
2022-09-10T08:29:31.195Z,98763.97
2022-09-10T08:30:32.931Z,98762.69
2022-09-10T08:31:34.856Z,98764.47
2022-09-10T08:32:36.563Z,98760.63
2022-09-10T08:33:39.835Z,98762.34
2022-09-10T08:34:41.811Z,98753.84
2022-09-10T08:35:43.447Z,98764.94
2022-09-10T08:36:45.167Z,98766.53
2022-09-10T08:37:47.740Z,98773.25
2022-09-10T08:38:50.513Z,98777.09
2022-09-10T08:39:52.246Z,98774.31
2022-09-10T08:40:54.756Z,98773.53
2022-09-10T08:41:59.540Z,98772.75
2022-09-10T08:43:01.791Z,98773.97
2022-09-10T08:44:12.671Z,98776.34
2022-09-10T08:45:19.348Z,98761.78
2022-09-10T08:46:26.988Z,98757.84
2022-09-10T08:47:40.710Z,98768.16
2022-09-10T08:48:44.846Z,98757.13
2022-09-10T08:49:51.730Z,98763.84
2022-09-10T08:51:26.403Z,98761.47
2022-09-10T08:52:38.430Z,98759.13
2022-09-10T08:53:59.937Z,98751.22
2022-09-10T08:55:22.953Z,98728.69
2022-09-10T08:56:25.160Z,98727.91
2022-09-10T08:57:34.402Z,98736.19
2022-09-10T08:58:43.870Z,98738.19
2022-09-10T08:59:47.680Z,98738.25
2022-09-10T09:00:56.057Z,98734.25
2022-09-10T09:02:02.404Z,98727.94
2022-09-10T09:03:28.701Z,98732.56
2022-09-10T09:04:54.472Z,98733.69
2022-09-10T09:06:00.625Z,98740.28
2022-09-10T09:07:10.682Z,98734.75
2022-09-10T09:08:15.967Z,98723.41
2022-09-10T09:09:17.970Z,98718.34
2022-09-10T09:10:25.853Z,98723.75
2022-09-10T09:11:37.100Z,98728.06
2022-09-10T09:13:03.309Z,98721.03
2022-09-10T09:14:33.778Z,98719.44
2022-09-10T09:15:56.074Z,98729.00
2022-09-10T09:17:35.448Z,98724.78
2022-09-10T09:18:47.004Z,98710.09
2022-09-10T09:20:14.443Z,98701.50
2022-09-10T09:21:18.304Z,98700.88
2022-09-10T09:22:38.079Z,98692.53
2022-09-10T09:24:12.626Z,98681.59
2022-09-10T09:25:21.030Z,98696.00
2022-09-10T09:26:35.034Z,98687.53
2022-09-10T09:27:41.639Z,98686.44
2022-09-10T09:29:01.757Z,98694.72
2022-09-10T09:30:06.751Z,98684.88
2022-09-10T09:31:14.668Z,98685.22
2022-09-10T09:32:19.285Z,98691.06
2022-09-10T09:33:23.831Z,98684.22
2022-09-10T09:34:34.659Z,98670.94
2022-09-10T09:35:54.081Z,98678.94
2022-09-10T09:37:01.573Z,98676.31
2022-09-10T09:38:25.158Z,98664.44
2022-09-10T09:39:36.384Z,98657.88
2022-09-10T09:40:46.811Z,98666.56
2022-09-10T09:41:59.267Z,98666.56
2022-09-10T09:43:13.916Z,98652.81
2022-09-10T09:44:19.196Z,98657.53
2022-09-10T09:45:44.147Z,98631.13
2022-09-10T09:46:45.849Z,98647.63
2022-09-10T09:47:50.316Z,98648.81
2022-09-10T09:48:57.691Z,98641.31
2022-09-10T09:50:00.538Z,98652.78
2022-09-10T09:51:04.532Z,98637.47
2022-09-10T09:52:23.273Z,98636.28
2022-09-10T09:53:28.011Z,98635.91
2022-09-10T09:55:03.234Z,98642.91
2022-09-10T09:55:56.890Z,98639.72
2022-09-10T09:56:59.969Z,98631.91
2022-09-10T09:58:32.504Z,98636.59
2022-09-10T09:59:37.632Z,98621.72
2022-09-10T10:00:39.369Z,98598.47
2022-09-10T10:01:42.954Z,98618.56
2022-09-10T10:02:45.372Z,98622.47
2022-09-10T10:04:05.525Z,98620.13
2022-09-10T10:05:20.781Z,98616.97
2022-09-10T10:06:50.976Z,98628.81
2022-09-10T10:07:52.961Z,98622.88
2022-09-10T10:09:01.662Z,98626.78
2022-09-10T10:10:07.540Z,98617.72
2022-09-10T10:11:12.404Z,98631.94
2022-09-10T10:12:21.715Z,98627.59
2022-09-10T10:13:24.337Z,98624.38
2022-09-10T10:14:35.326Z,98614.06
2022-09-10T10:15:41.182Z,98599.53
2022-09-10T10:16:43.094Z,98611.25
2022-09-10T10:17:44.986Z,98590.72
2022-09-10T10:18:46.715Z,98605.72
2022-09-10T10:20:19.605Z,98607.00
2022-09-10T10:21:34.964Z,98607.81
2022-09-10T10:22:39.028Z,98594.41
2022-09-10T10:23:41.089Z,98592.47
2022-09-10T10:24:43.201Z,98611.78
2022-09-10T10:25:48.826Z,98603.06
2022-09-10T10:26:50.687Z,98600.72
2022-09-10T10:27:54.527Z,98592.44
2022-09-10T10:29:01.365Z,98594.09
2022-09-10T10:30:06.195Z,98592.47
2022-09-10T10:31:07.937Z,98595.09
2022-09-10T10:32:16.553Z,98583.63
2022-09-10T10:33:31.729Z,98585.94
2022-09-10T10:34:47.473Z,98583.44
2022-09-10T10:35:49.130Z,98592.44
2022-09-10T10:37:06.371Z,98590.03
2022-09-10T10:38:44.637Z,98588.25
2022-09-10T10:40:04.717Z,98591.06
2022-09-10T10:41:40.066Z,98583.13
2022-09-10T10:42:49.217Z,98582.56
2022-09-10T10:44:03.229Z,98583.25
2022-09-10T10:45:32.870Z,98571.78
2022-09-10T10:47:09.814Z,98580.09
2022-09-10T10:48:32.866Z,98581.78
2022-09-10T10:50:08.260Z,98578.09
2022-09-10T10:51:18.254Z,98566.06
2022-09-10T10:52:47.770Z,98569.69
2022-09-10T10:54:28.813Z,98567.72
2022-09-10T10:55:41.772Z,98565.00
2022-09-10T10:57:27.686Z,98563.44
2022-09-10T10:59:04.744Z,98555.97
2022-09-10T11:00:13.010Z,98557.16
2022-09-10T11:01:21.680Z,98564.63
2022-09-10T11:02:36.324Z,98554.41
2022-09-10T11:03:46.412Z,98547.31
2022-09-10T11:04:53.496Z,98561.09
2022-09-10T11:06:05.395Z,98550.09
2022-09-10T11:07:23.233Z,98533.56
2022-09-10T11:08:37.617Z,98548.13
2022-09-10T11:09:43.179Z,98548.44
2022-09-10T11:10:56.320Z,98549.19
2022-09-10T11:12:05.861Z,98552.75
2022-09-10T11:13:27.864Z,98548.03
2022-09-10T11:14:38.392Z,98542.09
2022-09-10T11:15:55.447Z,98546.44
2022-09-10T11:17:03.778Z,98540.50
2022-09-10T11:18:28.496Z,98538.47
2022-09-10T11:19:38.438Z,98540.31
2022-09-10T11:20:45.932Z,98539.09
2022-09-10T11:21:56.421Z,98540.16
2022-09-10T11:23:10.904Z,98541.72
2022-09-10T11:24:23.641Z,98540.53
2022-09-10T11:25:34.386Z,98519.56
2022-09-10T11:26:39.896Z,98543.34
2022-09-10T11:27:52.127Z,98539.03
2022-09-10T11:29:18.668Z,98537.47
2022-09-10T11:30:20.541Z,98535.13
2022-09-10T11:31:30.474Z,98541.88
2022-09-10T11:32:44.839Z,98522.03
2022-09-10T11:34:02.306Z,98505.97
2022-09-10T11:35:07.744Z,98515.91
2022-09-10T11:36:23.511Z,98515.88
2022-09-10T11:37:43.889Z,98514.59
2022-09-10T11:38:59.074Z,98512.66
2022-09-10T11:40:07.481Z,98518.22
2022-09-10T11:41:25.092Z,98513.16
2022-09-10T11:42:39.873Z,98523.03
2022-09-10T11:43:42.409Z,98524.25
2022-09-10T11:44:53.376Z,98514.09
2022-09-10T11:45:59.142Z,98518.47
2022-09-10T11:47:04.095Z,98508.56
2022-09-10T11:48:10.591Z,98515.63
2022-09-10T11:49:18.386Z,98510.91
2022-09-10T11:50:52.128Z,98506.28
2022-09-10T11:51:54.004Z,98498.81
2022-09-10T11:52:59.398Z,98510.22
2022-09-10T11:54:03.933Z,98502.69
2022-09-10T11:55:08.631Z,98505.81
2022-09-10T11:56:49.664Z,98495.81
2022-09-10T11:58:00.221Z,98499.97
2022-09-10T11:59:40.980Z,98495.22
2022-09-10T12:00:56.641Z,98489.97
2022-09-10T12:02:15.276Z,98494.06
2022-09-10T12:04:01.767Z,98488.78
2022-09-10T12:05:30.312Z,98495.91
2022-09-10T12:07:01.344Z,98498.63
2022-09-10T12:08:28.665Z,98497.59
2022-09-10T12:10:00.002Z,98495.72
2022-09-10T12:11:20.261Z,98505.94
2022-09-10T12:12:32.005Z,98505.75
2022-09-10T12:13:39.535Z,98506.28
2022-09-10T12:14:41.748Z,98500.59
2022-09-10T12:15:56.270Z,98504.00
2022-09-10T12:17:04.069Z,98501.22
2022-09-10T12:18:22.044Z,98487.56
2022-09-10T12:19:31.661Z,98488.00
2022-09-10T12:20:54.899Z,98489.69
2022-09-10T12:22:16.976Z,98484.69
2022-09-10T12:23:31.941Z,98487.31
2022-09-10T12:24:36.966Z,98486.59
2022-09-10T12:25:38.893Z,98487.38
2022-09-10T12:26:45.115Z,98490.88
2022-09-10T12:27:49.164Z,98486.19
2022-09-10T12:28:53.621Z,98489.72
2022-09-10T12:29:55.364Z,98481.84
2022-09-10T12:31:03.901Z,98479.56
2022-09-10T12:32:14.826Z,98476.06
2022-09-10T12:33:16.352Z,98476.72
2022-09-10T12:34:19.760Z,98476.97
2022-09-10T12:35:34.376Z,98477.53
2022-09-10T12:36:36.114Z,98474.72
2022-09-10T12:37:37.881Z,98481.00
2022-09-10T12:39:01.476Z,98479.59
2022-09-10T12:40:44.418Z,98464.81
2022-09-10T12:41:46.008Z,98465.38
2022-09-10T12:42:47.680Z,98463.09
2022-09-10T12:43:49.332Z,98457.88
2022-09-10T12:44:51.134Z,98445.00
2022-09-10T12:46:17.531Z,98450.13
2022-09-10T12:47:45.261Z,98445.25
2022-09-10T12:48:50.922Z,98441.56
2022-09-10T12:50:06.365Z,98431.69
2022-09-10T12:51:28.259Z,98437.56
2022-09-10T12:53:02.917Z,98437.56
2022-09-10T12:54:04.570Z,98436.66
2022-09-10T12:55:15.160Z,98442.34
2022-09-10T12:56:45.914Z,98441.75
2022-09-10T12:58:16.445Z,98452.78
2022-09-10T12:59:36.565Z,98438.41
2022-09-10T13:01:03.796Z,98439.50
2022-09-10T13:02:28.193Z,98430.25
2022-09-10T13:03:31.329Z,98434.50
2022-09-10T13:04:37.837Z,98419.81
2022-09-10T13:05:54.247Z,98413.28
2022-09-10T13:07:04.377Z,98408.03
2022-09-10T13:08:26.438Z,98410.22